sensor_id;sensor_type;location;lat;lon;timestamp;P1;durP1;ratioP1;P2;durP2;ratioP2
2362;SDS011;64265;51.664;7.626;2023-03-01T00:02:19;29.00;;;21.70;;
2362;SDS011;64265;51.664;7.626;2023-03-01T00:04:46;28.20;;;19.58;;
2362;SDS011;64265;51.664;7.626;2023-03-01T00:07:13;27.73;;;19.65;;
2362;SDS011;64265;51.664;7.626;2023-03-01T00:09:39;31.08;;;19.42;;
2362;SDS011;64265;51.664;7.626;2023-03-01T00:12:06;28.20;;;18.60;;
2362;SDS011;64265;51.664;7.626;2023-03-01T00:14:33;29.25;;;18.38;;
2362;SDS011;64265;51.664;7.626;2023-03-01T00:17:01;28.98;;;20.70;;
2362;SDS011;64265;51.664;7.626;2023-03-01T00:19:28;30.48;;;20.02;;
2362;SDS011;64265;51.664;7.626;2023-03-01T00:21:54;27.75;;;19.45;;
2362;SDS011;64265;51.664;7.626;2023-03-01T00:24:21;32.90;;;21.27;;
2362;SDS011;64265;51.664;7.626;2023-03-01T00:26:48;27.73;;;19.20;;
2362;SDS011;64265;51.664;7.626;2023-03-01T00:29:14;29.58;;;17.90;;
2362;SDS011;64265;51.664;7.626;2023-03-01T00:31:41;24.27;;;17.15;;
2362;SDS011;64265;51.664;7.626;2023-03-01T00:34:09;26.27;;;17.75;;
2362;SDS011;64265;51.664;7.626;2023-03-01T00:36:36;28.58;;;18.00;;
2362;SDS011;64265;51.664;7.626;2023-03-01T00:39:04;26.38;;;17.88;;
2362;SDS011;64265;51.664;7.626;2023-03-01T00:41:33;23.02;;;15.73;;
2362;SDS011;64265;51.664;7.626;2023-03-01T00:44:00;23.90;;;16.92;;
2362;SDS011;64265;51.664;7.626;2023-03-01T00:46:27;23.35;;;15.93;;
2362;SDS011;64265;51.664;7.626;2023-03-01T00:48:55;22.67;;;15.55;;
2362;SDS011;64265;51.664;7.626;2023-03-01T00:51:24;23.88;;;16.05;;
2362;SDS011;64265;51.664;7.626;2023-03-01T00:53:52;22.05;;;14.60;;
2362;SDS011;64265;51.664;7.626;2023-03-01T00:56:20;26.45;;;17.38;;
2362;SDS011;64265;51.664;7.626;2023-03-01T00:58:47;19.98;;;14.23;;
2362;SDS011;64265;51.664;7.626;2023-03-01T01:01:14;22.83;;;15.35;;
2362;SDS011;64265;51.664;7.626;2023-03-01T01:03:43;19.08;;;13.65;;
2362;SDS011;64265;51.664;7.626;2023-03-01T01:06:15;20.83;;;14.82;;
2362;SDS011;64265;51.664;7.626;2023-03-01T01:08:44;17.85;;;14.00;;
2362;SDS011;64265;51.664;7.626;2023-03-01T01:11:11;18.90;;;13.98;;
2362;SDS011;64265;51.664;7.626;2023-03-01T01:13:38;22.45;;;15.05;;
2362;SDS011;64265;51.664;7.626;2023-03-01T01:16:06;22.38;;;14.00;;
2362;SDS011;64265;51.664;7.626;2023-03-01T01:18:33;21.40;;;14.32;;
2362;SDS011;64265;51.664;7.626;2023-03-01T01:21:03;19.42;;;14.55;;
2362;SDS011;64265;51.664;7.626;2023-03-01T01:23:31;21.23;;;13.73;;
2362;SDS011;64265;51.664;7.626;2023-03-01T01:26:03;19.45;;;14.30;;
2362;SDS011;64265;51.664;7.626;2023-03-01T01:28:31;17.08;;;13.07;;
2362;SDS011;64265;51.664;7.626;2023-03-01T01:30:58;18.65;;;12.80;;
2362;SDS011;64265;51.664;7.626;2023-03-01T01:33:25;20.38;;;13.20;;
2362;SDS011;64265;51.664;7.626;2023-03-01T01:35:52;19.23;;;13.98;;
2362;SDS011;64265;51.664;7.626;2023-03-01T01:38:19;20.35;;;13.15;;
2362;SDS011;64265;51.664;7.626;2023-03-01T01:40:46;16.33;;;12.75;;
2362;SDS011;64265;51.664;7.626;2023-03-01T01:43:18;19.33;;;12.25;;
2362;SDS011;64265;51.664;7.626;2023-03-01T01:45:46;20.55;;;13.18;;
2362;SDS011;64265;51.664;7.626;2023-03-01T01:48:14;16.73;;;12.48;;
2362;SDS011;64265;51.664;7.626;2023-03-01T01:50:43;14.68;;;10.63;;
2362;SDS011;64265;51.664;7.626;2023-03-01T01:53:13;16.30;;;12.82;;
2362;SDS011;64265;51.664;7.626;2023-03-01T01:55:44;15.15;;;11.55;;
2362;SDS011;64265;51.664;7.626;2023-03-01T01:58:13;15.73;;;10.80;;
2362;SDS011;64265;51.664;7.626;2023-03-01T02:00:45;17.58;;;11.57;;
2362;SDS011;64265;51.664;7.626;2023-03-01T02:03:12;18.35;;;13.13;;
2362;SDS011;64265;51.664;7.626;2023-03-01T02:05:43;17.55;;;12.55;;
2362;SDS011;64265;51.664;7.626;2023-03-01T02:08:13;14.00;;;10.57;;
2362;SDS011;64265;51.664;7.626;2023-03-01T02:10:41;13.77;;;10.55;;
2362;SDS011;64265;51.664;7.626;2023-03-01T02:13:08;17.23;;;10.90;;
2362;SDS011;64265;51.664;7.626;2023-03-01T02:15:37;15.20;;;10.48;;
2362;SDS011;64265;51.664;7.626;2023-03-01T02:18:06;14.40;;;9.90;;
2362;SDS011;64265;51.664;7.626;2023-03-01T02:20:37;16.20;;;11.77;;
2362;SDS011;64265;51.664;7.626;2023-03-01T02:23:10;15.27;;;10.23;;
2362;SDS011;64265;51.664;7.626;2023-03-01T02:25:40;15.00;;;10.20;;
2362;SDS011;64265;51.664;7.626;2023-03-01T02:28:21;14.35;;;10.63;;
2362;SDS011;64265;51.664;7.626;2023-03-01T02:30:52;13.57;;;10.32;;
2362;SDS011;64265;51.664;7.626;2023-03-01T02:33:38;14.40;;;10.85;;
2362;SDS011;64265;51.664;7.626;2023-03-01T02:36:06;15.18;;;10.75;;
2362;SDS011;64265;51.664;7.626;2023-03-01T02:38:36;15.73;;;10.60;;
2362;SDS011;64265;51.664;7.626;2023-03-01T02:41:03;13.32;;;9.65;;
2362;SDS011;64265;51.664;7.626;2023-03-01T02:43:33;13.77;;;10.13;;
2362;SDS011;64265;51.664;7.626;2023-03-01T02:46:02;13.20;;;8.80;;
2362;SDS011;64265;51.664;7.626;2023-03-01T02:48:39;10.35;;;7.97;;
2362;SDS011;64265;51.664;7.626;2023-03-01T02:51:09;12.23;;;9.05;;
2362;SDS011;64265;51.664;7.626;2023-03-01T02:53:41;14.55;;;10.02;;
2362;SDS011;64265;51.664;7.626;2023-03-01T02:56:15;12.40;;;9.38;;
2362;SDS011;64265;51.664;7.626;2023-03-01T02:58:44;13.90;;;9.40;;
2362;SDS011;64265;51.664;7.626;2023-03-01T03:01:15;14.20;;;9.32;;
2362;SDS011;64265;51.664;7.626;2023-03-01T03:03:42;10.60;;;8.88;;
2362;SDS011;64265;51.664;7.626;2023-03-01T03:06:09;12.45;;;8.82;;
2362;SDS011;64265;51.664;7.626;2023-03-01T03:08:36;12.10;;;9.07;;
2362;SDS011;64265;51.664;7.626;2023-03-01T03:11:03;13.00;;;9.10;;
2362;SDS011;64265;51.664;7.626;2023-03-01T03:13:30;12.43;;;8.60;;
2362;SDS011;64265;51.664;7.626;2023-03-01T03:15:58;11.77;;;8.25;;
2362;SDS011;64265;51.664;7.626;2023-03-01T03:18:25;10.70;;;8.60;;
2362;SDS011;64265;51.664;7.626;2023-03-01T03:20:52;11.88;;;8.52;;
2362;SDS011;64265;51.664;7.626;2023-03-01T03:23:20;10.95;;;8.55;;
2362;SDS011;64265;51.664;7.626;2023-03-01T03:25:48;11.05;;;8.35;;
2362;SDS011;64265;51.664;7.626;2023-03-01T03:28:15;10.68;;;8.43;;
2362;SDS011;64265;51.664;7.626;2023-03-01T03:30:42;9.63;;;7.50;;
2362;SDS011;64265;51.664;7.626;2023-03-01T03:33:11;10.82;;;7.90;;
2362;SDS011;64265;51.664;7.626;2023-03-01T03:35:39;11.18;;;7.75;;
2362;SDS011;64265;51.664;7.626;2023-03-01T03:38:08;10.57;;;8.18;;
2362;SDS011;64265;51.664;7.626;2023-03-01T03:40:41;10.93;;;7.07;;
2362;SDS011;64265;51.664;7.626;2023-03-01T03:43:10;9.98;;;7.28;;
2362;SDS011;64265;51.664;7.626;2023-03-01T03:45:38;11.70;;;7.40;;
2362;SDS011;64265;51.664;7.626;2023-03-01T03:48:06;9.70;;;6.97;;
2362;SDS011;64265;51.664;7.626;2023-03-01T03:50:36;11.57;;;8.13;;
2362;SDS011;64265;51.664;7.626;2023-03-01T03:53:05;10.60;;;7.80;;
2362;SDS011;64265;51.664;7.626;2023-03-01T03:55:32;10.48;;;7.57;;
2362;SDS011;64265;51.664;7.626;2023-03-01T03:58:00;9.68;;;7.30;;
2362;SDS011;64265;51.664;7.626;2023-03-01T04:00:32;9.52;;;7.57;;
2362;SDS011;64265;51.664;7.626;2023-03-01T04:02:59;10.10;;;7.70;;
2362;SDS011;64265;51.664;7.626;2023-03-01T04:05:26;7.78;;;6.95;;
2362;SDS011;64265;51.664;7.626;2023-03-01T04:07:55;8.35;;;6.75;;
2362;SDS011;64265;51.664;7.626;2023-03-01T04:10:27;9.20;;;6.97;;
2362;SDS011;64265;51.664;7.626;2023-03-01T04:12:54;10.50;;;7.07;;
2362;SDS011;64265;51.664;7.626;2023-03-01T04:15:22;7.55;;;6.00;;
2362;SDS011;64265;51.664;7.626;2023-03-01T04:17:50;8.70;;;6.70;;
2362;SDS011;64265;51.664;7.626;2023-03-01T04:20:18;7.30;;;6.10;;
2362;SDS011;64265;51.664;7.626;2023-03-01T04:22:50;8.48;;;6.35;;
2362;SDS011;64265;51.664;7.626;2023-03-01T04:25:19;7.68;;;6.32;;
2362;SDS011;64265;51.664;7.626;2023-03-01T04:27:46;7.05;;;5.63;;
2362;SDS011;64265;51.664;7.626;2023-03-01T04:30:12;6.82;;;6.18;;
2362;SDS011;64265;51.664;7.626;2023-03-01T04:32:39;9.25;;;6.88;;
2362;SDS011;64265;51.664;7.626;2023-03-01T04:35:07;7.30;;;5.65;;
2362;SDS011;64265;51.664;7.626;2023-03-01T04:37:34;7.45;;;5.95;;
2362;SDS011;64265;51.664;7.626;2023-03-01T04:40:01;9.05;;;6.43;;
2362;SDS011;64265;51.664;7.626;2023-03-01T04:42:38;9.40;;;6.53;;
2362;SDS011;64265;51.664;7.626;2023-03-01T04:45:06;8.98;;;6.90;;
2362;SDS011;64265;51.664;7.626;2023-03-01T04:47:38;8.45;;;7.05;;
2362;SDS011;64265;51.664;7.626;2023-03-01T04:50:05;8.95;;;6.25;;
2362;SDS011;64265;51.664;7.626;2023-03-01T04:52:33;7.80;;;6.03;;
2362;SDS011;64265;51.664;7.626;2023-03-01T04:55:00;8.05;;;6.55;;
2362;SDS011;64265;51.664;7.626;2023-03-01T04:57:26;7.50;;;4.88;;
2362;SDS011;64265;51.664;7.626;2023-03-01T04:59:54;7.80;;;6.13;;
2362;SDS011;64265;51.664;7.626;2023-03-01T05:02:21;6.95;;;6.00;;
2362;SDS011;64265;51.664;7.626;2023-03-01T05:04:48;8.38;;;6.18;;
2362;SDS011;64265;51.664;7.626;2023-03-01T05:07:15;6.60;;;5.10;;
2362;SDS011;64265;51.664;7.626;2023-03-01T05:09:44;6.93;;;5.18;;
2362;SDS011;64265;51.664;7.626;2023-03-01T05:12:11;7.90;;;5.72;;
2362;SDS011;64265;51.664;7.626;2023-03-01T05:14:38;6.25;;;5.65;;
2362;SDS011;64265;51.664;7.626;2023-03-01T05:17:06;7.80;;;5.00;;
2362;SDS011;64265;51.664;7.626;2023-03-01T05:19:33;6.40;;;4.28;;
2362;SDS011;64265;51.664;7.626;2023-03-01T05:22:00;6.95;;;5.40;;
2362;SDS011;64265;51.664;7.626;2023-03-01T05:24:30;5.93;;;5.20;;
2362;SDS011;64265;51.664;7.626;2023-03-01T05:26:58;7.53;;;5.35;;
2362;SDS011;64265;51.664;7.626;2023-03-01T05:29:26;5.50;;;4.60;;
2362;SDS011;64265;51.664;7.626;2023-03-01T05:31:55;6.45;;;5.35;;
2362;SDS011;64265;51.664;7.626;2023-03-01T05:34:25;6.32;;;4.60;;
2362;SDS011;64265;51.664;7.626;2023-03-01T05:36:53;5.70;;;4.75;;
2362;SDS011;64265;51.664;7.626;2023-03-01T05:39:20;6.40;;;5.00;;
2362;SDS011;64265;51.664;7.626;2023-03-01T05:41:47;7.35;;;5.63;;
2362;SDS011;64265;51.664;7.626;2023-03-01T05:44:17;6.43;;;4.88;;
2362;SDS011;64265;51.664;7.626;2023-03-01T05:46:44;8.70;;;4.78;;
2362;SDS011;64265;51.664;7.626;2023-03-01T05:49:11;6.55;;;4.97;;
2362;SDS011;64265;51.664;7.626;2023-03-01T05:51:39;6.43;;;4.65;;
2362;SDS011;64265;51.664;7.626;2023-03-01T05:54:06;6.80;;;5.50;;
2362;SDS011;64265;51.664;7.626;2023-03-01T05:56:33;5.95;;;4.82;;
2362;SDS011;64265;51.664;7.626;2023-03-01T05:59:00;6.60;;;4.45;;
2362;SDS011;64265;51.664;7.626;2023-03-01T06:01:28;6.15;;;4.32;;
2362;SDS011;64265;51.664;7.626;2023-03-01T06:03:55;6.30;;;5.03;;
2362;SDS011;64265;51.664;7.626;2023-03-01T06:06:22;5.95;;;4.85;;
2362;SDS011;64265;51.664;7.626;2023-03-01T06:08:50;5.57;;;4.40;;
2362;SDS011;64265;51.664;7.626;2023-03-01T06:11:17;4.95;;;4.03;;
2362;SDS011;64265;51.664;7.626;2023-03-01T06:13:44;4.85;;;3.80;;
2362;SDS011;64265;51.664;7.626;2023-03-01T06:16:12;6.03;;;4.13;;
2362;SDS011;64265;51.664;7.626;2023-03-01T06:18:39;6.72;;;4.40;;
2362;SDS011;64265;51.664;7.626;2023-03-01T06:21:07;4.88;;;4.40;;
2362;SDS011;64265;51.664;7.626;2023-03-01T06:23:34;5.50;;;4.07;;
2362;SDS011;64265;51.664;7.626;2023-03-01T06:26:05;4.78;;;4.00;;
2362;SDS011;64265;51.664;7.626;2023-03-01T06:28:34;6.45;;;4.30;;
2362;SDS011;64265;51.664;7.626;2023-03-01T06:31:01;4.57;;;3.75;;
2362;SDS011;64265;51.664;7.626;2023-03-01T06:33:28;5.32;;;4.15;;
2362;SDS011;64265;51.664;7.626;2023-03-01T06:35:55;4.45;;;3.95;;
2362;SDS011;64265;51.664;7.626;2023-03-01T06:38:22;5.45;;;4.30;;
2362;SDS011;64265;51.664;7.626;2023-03-01T06:40:52;5.38;;;4.63;;
2362;SDS011;64265;51.664;7.626;2023-03-01T06:43:22;5.30;;;4.10;;
2362;SDS011;64265;51.664;7.626;2023-03-01T06:45:49;5.00;;;3.60;;
2362;SDS011;64265;51.664;7.626;2023-03-01T06:48:16;4.90;;;3.70;;
2362;SDS011;64265;51.664;7.626;2023-03-01T06:50:43;6.20;;;4.18;;
2362;SDS011;64265;51.664;7.626;2023-03-01T06:53:09;5.50;;;4.35;;
2362;SDS011;64265;51.664;7.626;2023-03-01T06:55:36;4.35;;;3.78;;
2362;SDS011;64265;51.664;7.626;2023-03-01T06:58:03;4.25;;;3.55;;
2362;SDS011;64265;51.664;7.626;2023-03-01T07:00:31;4.72;;;3.88;;
2362;SDS011;64265;51.664;7.626;2023-03-01T07:02:59;5.18;;;4.20;;
2362;SDS011;64265;51.664;7.626;2023-03-01T07:05:26;4.60;;;3.45;;
2362;SDS011;64265;51.664;7.626;2023-03-01T07:07:53;4.22;;;3.75;;
2362;SDS011;64265;51.664;7.626;2023-03-01T07:10:21;4.68;;;4.20;;
2362;SDS011;64265;51.664;7.626;2023-03-01T07:12:47;3.97;;;3.03;;
2362;SDS011;64265;51.664;7.626;2023-03-01T07:15:14;4.43;;;3.25;;
2362;SDS011;64265;51.664;7.626;2023-03-01T07:17:42;3.88;;;3.30;;
2362;SDS011;64265;51.664;7.626;2023-03-01T07:20:10;3.67;;;3.28;;
2362;SDS011;64265;51.664;7.626;2023-03-01T07:22:39;4.43;;;3.30;;
2362;SDS011;64265;51.664;7.626;2023-03-01T07:25:07;4.22;;;3.25;;
2362;SDS011;64265;51.664;7.626;2023-03-01T07:27:34;4.15;;;3.78;;
2362;SDS011;64265;51.664;7.626;2023-03-01T07:30:01;4.53;;;3.88;;
2362;SDS011;64265;51.664;7.626;2023-03-01T07:32:28;5.45;;;3.55;;
2362;SDS011;64265;51.664;7.626;2023-03-01T07:34:56;3.65;;;3.35;;
2362;SDS011;64265;51.664;7.626;2023-03-01T07:37:22;3.90;;;3.50;;
2362;SDS011;64265;51.664;7.626;2023-03-01T07:39:49;3.83;;;3.42;;
2362;SDS011;64265;51.664;7.626;2023-03-01T07:42:16;4.68;;;3.90;;
2362;SDS011;64265;51.664;7.626;2023-03-01T07:44:42;2.60;;;2.40;;
2362;SDS011;64265;51.664;7.626;2023-03-01T07:47:09;4.63;;;3.80;;
2362;SDS011;64265;51.664;7.626;2023-03-01T07:49:36;4.32;;;3.25;;
2362;SDS011;64265;51.664;7.626;2023-03-01T07:52:04;4.78;;;3.75;;
2362;SDS011;64265;51.664;7.626;2023-03-01T07:54:31;3.65;;;2.60;;
2362;SDS011;64265;51.664;7.626;2023-03-01T07:56:57;4.10;;;3.00;;
2362;SDS011;64265;51.664;7.626;2023-03-01T07:59:24;3.67;;;2.92;;
2362;SDS011;64265;51.664;7.626;2023-03-01T08:01:54;4.32;;;3.70;;
2362;SDS011;64265;51.664;7.626;2023-03-01T08:04:21;3.40;;;3.10;;
2362;SDS011;64265;51.664;7.626;2023-03-01T08:06:49;3.22;;;2.78;;
2362;SDS011;64265;51.664;7.626;2023-03-01T08:09:17;3.33;;;3.00;;
2362;SDS011;64265;51.664;7.626;2023-03-01T08:11:44;2.63;;;2.42;;
2362;SDS011;64265;51.664;7.626;2023-03-01T08:14:11;3.20;;;2.90;;
2362;SDS011;64265;51.664;7.626;2023-03-01T08:16:38;3.20;;;2.90;;
2362;SDS011;64265;51.664;7.626;2023-03-01T08:19:04;3.35;;;3.10;;
2362;SDS011;64265;51.664;7.626;2023-03-01T08:21:32;2.90;;;2.60;;
2362;SDS011;64265;51.664;7.626;2023-03-01T08:24:00;4.93;;;3.70;;
2362;SDS011;64265;51.664;7.626;2023-03-01T08:26:28;2.92;;;2.63;;
2362;SDS011;64265;51.664;7.626;2023-03-01T08:28:56;2.90;;;2.60;;
2362;SDS011;64265;51.664;7.626;2023-03-01T08:31:24;3.88;;;2.85;;
2362;SDS011;64265;51.664;7.626;2023-03-01T08:33:52;3.22;;;2.92;;
2362;SDS011;64265;51.664;7.626;2023-03-01T08:36:21;3.08;;;2.78;;
2362;SDS011;64265;51.664;7.626;2023-03-01T08:38:48;8.82;;;3.38;;
2362;SDS011;64265;51.664;7.626;2023-03-01T08:41:15;5.20;;;3.00;;
2362;SDS011;64265;51.664;7.626;2023-03-01T08:43:43;2.95;;;2.65;;
2362;SDS011;64265;51.664;7.626;2023-03-01T08:46:09;4.90;;;4.30;;
2362;SDS011;64265;51.664;7.626;2023-03-01T08:48:37;2.90;;;2.17;;
2362;SDS011;64265;51.664;7.626;2023-03-01T08:51:07;4.32;;;2.92;;
2362;SDS011;64265;51.664;7.626;2023-03-01T08:53:34;3.13;;;2.50;;
2362;SDS011;64265;51.664;7.626;2023-03-01T08:56:01;3.33;;;3.03;;
2362;SDS011;64265;51.664;7.626;2023-03-01T08:58:28;9.63;;;3.50;;
2362;SDS011;64265;51.664;7.626;2023-03-01T09:00:57;3.10;;;2.80;;
2362;SDS011;64265;51.664;7.626;2023-03-01T09:03:24;2.90;;;2.60;;
2362;SDS011;64265;51.664;7.626;2023-03-01T09:05:51;2.95;;;2.67;;
2362;SDS011;64265;51.664;7.626;2023-03-01T09:08:19;3.90;;;3.28;;
2362;SDS011;64265;51.664;7.626;2023-03-01T09:10:46;7.15;;;2.83;;
2362;SDS011;64265;51.664;7.626;2023-03-01T09:13:13;3.05;;;2.70;;
2362;SDS011;64265;51.664;7.626;2023-03-01T09:15:40;2.65;;;2.45;;
2362;SDS011;64265;51.664;7.626;2023-03-01T09:18:08;5.25;;;2.80;;
2362;SDS011;64265;51.664;7.626;2023-03-01T09:20:35;5.55;;;3.55;;
2362;SDS011;64265;51.664;7.626;2023-03-01T09:23:02;3.60;;;2.70;;
2362;SDS011;64265;51.664;7.626;2023-03-01T09:25:28;3.05;;;2.60;;
2362;SDS011;64265;51.664;7.626;2023-03-01T09:27:55;2.72;;;2.22;;
2362;SDS011;64265;51.664;7.626;2023-03-01T09:30:22;3.63;;;3.00;;
2362;SDS011;64265;51.664;7.626;2023-03-01T09:32:49;2.88;;;2.60;;
2362;SDS011;64265;51.664;7.626;2023-03-01T09:35:17;2.60;;;2.38;;
2362;SDS011;64265;51.664;7.626;2023-03-01T09:37:45;5.10;;;2.95;;
2362;SDS011;64265;51.664;7.626;2023-03-01T09:40:12;4.30;;;2.40;;
2362;SDS011;64265;51.664;7.626;2023-03-01T09:42:50;3.13;;;2.53;;
2362;SDS011;64265;51.664;7.626;2023-03-01T09:45:23;3.55;;;2.60;;
2362;SDS011;64265;51.664;7.626;2023-03-01T09:47:53;2.97;;;2.65;;
2362;SDS011;64265;51.664;7.626;2023-03-01T09:50:23;2.60;;;2.40;;
2362;SDS011;64265;51.664;7.626;2023-03-01T09:52:54;4.03;;;2.15;;
2362;SDS011;64265;51.664;7.626;2023-03-01T09:55:29;3.00;;;2.50;;
2362;SDS011;64265;51.664;7.626;2023-03-01T09:58:00;2.50;;;2.30;;
2362;SDS011;64265;51.664;7.626;2023-03-01T10:00:36;2.97;;;2.50;;
2362;SDS011;64265;51.664;7.626;2023-03-01T10:03:08;2.63;;;2.42;;
2362;SDS011;64265;51.664;7.626;2023-03-01T10:05:44;2.28;;;2.08;;
2362;SDS011;64265;51.664;7.626;2023-03-01T10:08:24;2.58;;;2.00;;
2362;SDS011;64265;51.664;7.626;2023-03-01T10:11:04;2.75;;;2.15;;
2362;SDS011;64265;51.664;7.626;2023-03-01T10:13:43;2.95;;;2.53;;
2362;SDS011;64265;51.664;7.626;2023-03-01T10:16:14;4.28;;;1.98;;
2362;SDS011;64265;51.664;7.626;2023-03-01T10:18:43;2.88;;;2.47;;
2362;SDS011;64265;51.664;7.626;2023-03-01T10:21:16;3.15;;;2.00;;
2362;SDS011;64265;51.664;7.626;2023-03-01T10:23:44;6.07;;;2.75;;
2362;SDS011;64265;51.664;7.626;2023-03-01T10:26:14;5.93;;;3.13;;
2362;SDS011;64265;51.664;7.626;2023-03-01T10:29:05;3.75;;;2.00;;
2362;SDS011;64265;51.664;7.626;2023-03-01T10:31:36;3.75;;;2.63;;
2362;SDS011;64265;51.664;7.626;2023-03-01T10:34:08;3.65;;;2.75;;
2362;SDS011;64265;51.664;7.626;2023-03-01T10:36:39;4.20;;;2.90;;
2362;SDS011;64265;51.664;7.626;2023-03-01T10:39:11;2.58;;;2.00;;
2362;SDS011;64265;51.664;7.626;2023-03-01T10:41:47;5.72;;;2.60;;
2362;SDS011;64265;51.664;7.626;2023-03-01T10:44:34;6.80;;;2.72;;
2362;SDS011;64265;51.664;7.626;2023-03-01T10:47:03;4.55;;;2.05;;
2362;SDS011;64265;51.664;7.626;2023-03-01T10:49:30;4.63;;;2.55;;
2362;SDS011;64265;51.664;7.626;2023-03-01T10:51:58;2.42;;;2.22;;
2362;SDS011;64265;51.664;7.626;2023-03-01T10:54:43;5.88;;;2.40;;
2362;SDS011;64265;51.664;7.626;2023-03-01T10:57:29;3.95;;;2.50;;
2362;SDS011;64265;51.664;7.626;2023-03-01T11:02:50;2.95;;;2.25;;
2362;SDS011;64265;51.664;7.626;2023-03-01T11:05:28;3.63;;;2.78;;
2362;SDS011;64265;51.664;7.626;2023-03-01T11:07:57;2.88;;;2.65;;
2362;SDS011;64265;51.664;7.626;2023-03-01T11:10:25;2.63;;;2.40;;
2362;SDS011;64265;51.664;7.626;2023-03-01T11:12:53;2.00;;;1.65;;
2362;SDS011;64265;51.664;7.626;2023-03-01T11:15:32;5.32;;;2.67;;
2362;SDS011;64265;51.664;7.626;2023-03-01T11:17:59;3.25;;;2.13;;
2362;SDS011;64265;51.664;7.626;2023-03-01T11:20:27;2.22;;;2.00;;
2362;SDS011;64265;51.664;7.626;2023-03-01T11:22:59;2.53;;;2.33;;
2362;SDS011;64265;51.664;7.626;2023-03-01T11:25:31;4.20;;;2.20;;
2362;SDS011;64265;51.664;7.626;2023-03-01T11:28:01;2.50;;;2.30;;
2362;SDS011;64265;51.664;7.626;2023-03-01T11:30:31;2.40;;;2.20;;
2362;SDS011;64265;51.664;7.626;2023-03-01T11:33:04;2.45;;;2.25;;
2362;SDS011;64265;51.664;7.626;2023-03-01T11:35:44;2.78;;;2.15;;
2362;SDS011;64265;51.664;7.626;2023-03-01T11:38:22;2.33;;;2.13;;
2362;SDS011;64265;51.664;7.626;2023-03-01T11:40:52;2.60;;;1.92;;
2362;SDS011;64265;51.664;7.626;2023-03-01T11:43:26;3.25;;;2.60;;
2362;SDS011;64265;51.664;7.626;2023-03-01T11:46:08;3.05;;;2.15;;
2362;SDS011;64265;51.664;7.626;2023-03-01T11:48:56;2.10;;;1.92;;
2362;SDS011;64265;51.664;7.626;2023-03-01T11:51:38;2.60;;;2.40;;
2362;SDS011;64265;51.664;7.626;2023-03-01T11:54:26;3.63;;;2.30;;
2362;SDS011;64265;51.664;7.626;2023-03-01T11:57:01;2.22;;;2.05;;
2362;SDS011;64265;51.664;7.626;2023-03-01T11:59:49;3.08;;;2.65;;
2362;SDS011;64265;51.664;7.626;2023-03-01T12:06:00;2.88;;;2.30;;
2362;SDS011;64265;51.664;7.626;2023-03-01T12:08:48;3.50;;;2.30;;
2362;SDS011;64265;51.664;7.626;2023-03-01T12:11:29;3.88;;;3.38;;
2362;SDS011;64265;51.664;7.626;2023-03-01T12:14:12;8.18;;;4.30;;
2362;SDS011;64265;51.664;7.626;2023-03-01T12:16:59;4.72;;;3.75;;
2362;SDS011;64265;51.664;7.626;2023-03-01T12:19:42;3.63;;;3.17;;
2362;SDS011;64265;51.664;7.626;2023-03-01T12:22:22;3.58;;;2.70;;
2362;SDS011;64265;51.664;7.626;2023-03-01T12:27:57;3.65;;;3.15;;
2362;SDS011;64265;51.664;7.626;2023-03-01T12:30:49;3.35;;;3.05;;
2362;SDS011;64265;51.664;7.626;2023-03-01T12:33:32;5.63;;;2.38;;
2362;SDS011;64265;51.664;7.626;2023-03-01T12:36:11;2.65;;;2.45;;
2362;SDS011;64265;51.664;7.626;2023-03-01T12:38:50;2.70;;;2.30;;
2362;SDS011;64265;51.664;7.626;2023-03-01T12:41:37;4.43;;;2.67;;
2362;SDS011;64265;51.664;7.626;2023-03-01T12:44:20;4.38;;;2.80;;
2362;SDS011;64265;51.664;7.626;2023-03-01T12:47:01;2.40;;;2.20;;
2362;SDS011;64265;51.664;7.626;2023-03-01T12:49:38;2.10;;;1.67;;
2362;SDS011;64265;51.664;7.626;2023-03-01T12:52:10;2.63;;;2.33;;
2362;SDS011;64265;51.664;7.626;2023-03-01T12:54:40;3.92;;;2.28;;
2362;SDS011;64265;51.664;7.626;2023-03-01T12:57:09;2.95;;;2.75;;
2362;SDS011;64265;51.664;7.626;2023-03-01T12:59:43;3.37;;;2.23;;
2362;SDS011;64265;51.664;7.626;2023-03-01T13:02:22;2.10;;;1.90;;
2362;SDS011;64265;51.664;7.626;2023-03-01T13:05:01;2.90;;;2.20;;
2362;SDS011;64265;51.664;7.626;2023-03-01T13:07:49;2.40;;;2.20;;
2362;SDS011;64265;51.664;7.626;2023-03-01T13:10:22;2.00;;;1.80;;
2362;SDS011;64265;51.664;7.626;2023-03-01T13:13:00;2.80;;;2.00;;
2362;SDS011;64265;51.664;7.626;2023-03-01T13:15:34;1.77;;;1.67;;
2362;SDS011;64265;51.664;7.626;2023-03-01T13:18:02;2.03;;;1.80;;
2362;SDS011;64265;51.664;7.626;2023-03-01T13:20:32;2.35;;;2.13;;
2362;SDS011;64265;51.664;7.626;2023-03-01T13:23:11;2.22;;;1.63;;
2362;SDS011;64265;51.664;7.626;2023-03-01T13:26:00;1.80;;;1.70;;
2362;SDS011;64265;51.664;7.626;2023-03-01T13:37:10;1.83;;;1.30;;
2362;SDS011;64265;51.664;7.626;2023-03-01T13:39:50;2.05;;;1.50;;
2362;SDS011;64265;51.664;7.626;2023-03-01T13:42:28;1.75;;;1.65;;
2362;SDS011;64265;51.664;7.626;2023-03-01T13:45:03;2.05;;;1.85;;
2362;SDS011;64265;51.664;7.626;2023-03-01T13:47:41;2.30;;;1.80;;
2362;SDS011;64265;51.664;7.626;2023-03-01T13:50:15;1.83;;;1.67;;
2362;SDS011;64265;51.664;7.626;2023-03-01T13:52:45;2.38;;;2.00;;
2362;SDS011;64265;51.664;7.626;2023-03-01T13:55:17;2.05;;;1.70;;
2362;SDS011;64265;51.664;7.626;2023-03-01T13:57:47;2.23;;;1.53;;
2362;SDS011;64265;51.664;7.626;2023-03-01T14:03:12;3.38;;;1.80;;
2362;SDS011;64265;51.664;7.626;2023-03-01T14:05:41;1.95;;;1.75;;
2362;SDS011;64265;51.664;7.626;2023-03-01T14:08:19;2.45;;;1.90;;
2362;SDS011;64265;51.664;7.626;2023-03-01T14:10:55;1.60;;;1.50;;
2362;SDS011;64265;51.664;7.626;2023-03-01T14:13:43;2.55;;;1.95;;
2362;SDS011;64265;51.664;7.626;2023-03-01T14:16:20;2.40;;;2.20;;
2362;SDS011;64265;51.664;7.626;2023-03-01T14:18:56;1.75;;;1.50;;
2362;SDS011;64265;51.664;7.626;2023-03-01T14:21:33;2.00;;;1.80;;
2362;SDS011;64265;51.664;7.626;2023-03-01T14:24:01;2.22;;;1.85;;
2362;SDS011;64265;51.664;7.626;2023-03-01T14:26:28;2.92;;;2.25;;
2362;SDS011;64265;51.664;7.626;2023-03-01T14:28:57;2.53;;;1.60;;
2362;SDS011;64265;51.664;7.626;2023-03-01T14:31:31;1.98;;;1.67;;
2362;SDS011;64265;51.664;7.626;2023-03-01T14:34:03;2.10;;;1.90;;
2362;SDS011;64265;51.664;7.626;2023-03-01T14:36:31;3.35;;;1.70;;
2362;SDS011;64265;51.664;7.626;2023-03-01T14:38:59;2.45;;;2.25;;
2362;SDS011;64265;51.664;7.626;2023-03-01T14:41:30;2.25;;;1.80;;
2362;SDS011;64265;51.664;7.626;2023-03-01T14:44:01;1.77;;;1.67;;
2362;SDS011;64265;51.664;7.626;2023-03-01T14:46:30;1.55;;;1.45;;
2362;SDS011;64265;51.664;7.626;2023-03-01T14:49:01;1.83;;;1.73;;
2362;SDS011;64265;51.664;7.626;2023-03-01T14:51:34;2.33;;;2.13;;
2362;SDS011;64265;51.664;7.626;2023-03-01T14:54:03;1.80;;;1.70;;
2362;SDS011;64265;51.664;7.626;2023-03-01T14:56:42;1.80;;;1.50;;
2362;SDS011;64265;51.664;7.626;2023-03-01T14:59:11;1.52;;;1.20;;
2362;SDS011;64265;51.664;7.626;2023-03-01T15:01:38;2.00;;;1.73;;
2362;SDS011;64265;51.664;7.626;2023-03-01T15:04:07;1.53;;;1.40;;
2362;SDS011;64265;51.664;7.626;2023-03-01T15:06:38;3.45;;;2.05;;
2362;SDS011;64265;51.664;7.626;2023-03-01T15:09:05;2.28;;;1.42;;
2362;SDS011;64265;51.664;7.626;2023-03-01T15:11:37;2.27;;;2.07;;
2362;SDS011;64265;51.664;7.626;2023-03-01T15:16:51;1.60;;;1.25;;
2362;SDS011;64265;51.664;7.626;2023-03-01T15:19:19;2.13;;;1.90;;
2362;SDS011;64265;51.664;7.626;2023-03-01T15:21:48;1.80;;;1.60;;
2362;SDS011;64265;51.664;7.626;2023-03-01T15:24:16;1.73;;;1.63;;
2362;SDS011;64265;51.664;7.626;2023-03-01T15:26:49;4.70;;;1.70;;
2362;SDS011;64265;51.664;7.626;2023-03-01T15:29:20;2.07;;;1.50;;
2362;SDS011;64265;51.664;7.626;2023-03-01T15:31:56;2.07;;;1.57;;
2362;SDS011;64265;51.664;7.626;2023-03-01T15:34:26;1.57;;;1.13;;
2362;SDS011;64265;51.664;7.626;2023-03-01T15:36:55;1.42;;;1.30;;
2362;SDS011;64265;51.664;7.626;2023-03-01T15:39:29;2.27;;;1.70;;